sensor_id;sensor_type;location;lat;lon;timestamp;P1;durP1;ratioP1;P2;durP2;ratioP2
19057;SDS011;9662;53.612;9.914;2022-08-19T00:00:29;8.07;;;5.88;;
19057;SDS011;9662;53.612;9.914;2022-08-19T00:02:57;6.95;;;6.25;;
19057;SDS011;9662;53.612;9.914;2022-08-19T00:05:23;6.57;;;5.90;;
19057;SDS011;9662;53.612;9.914;2022-08-19T00:07:50;16.25;;;10.52;;
19057;SDS011;9662;53.612;9.914;2022-08-19T00:10:19;15.13;;;10.27;;
19057;SDS011;9662;53.612;9.914;2022-08-19T00:12:46;13.63;;;9.07;;
19057;SDS011;9662;53.612;9.914;2022-08-19T00:15:14;17.02;;;9.82;;
19057;SDS011;9662;53.612;9.914;2022-08-19T00:17:43;15.27;;;10.53;;
19057;SDS011;9662;53.612;9.914;2022-08-19T00:20:12;15.63;;;10.33;;
19057;SDS011;9662;53.612;9.914;2022-08-19T00:22:42;15.40;;;11.45;;
19057;SDS011;9662;53.612;9.914;2022-08-19T00:25:09;16.38;;;11.35;;
19057;SDS011;9662;53.612;9.914;2022-08-19T00:27:37;18.08;;;10.90;;
19057;SDS011;9662;53.612;9.914;2022-08-19T00:30:05;23.58;;;12.25;;
19057;SDS011;9662;53.612;9.914;2022-08-19T00:32:34;18.55;;;11.98;;
19057;SDS011;9662;53.612;9.914;2022-08-19T00:35:01;19.75;;;12.48;;
19057;SDS011;9662;53.612;9.914;2022-08-19T00:37:28;18.65;;;11.02;;
19057;SDS011;9662;53.612;9.914;2022-08-19T00:39:55;18.83;;;11.68;;
19057;SDS011;9662;53.612;9.914;2022-08-19T00:42:22;20.60;;;12.18;;
19057;SDS011;9662;53.612;9.914;2022-08-19T00:44:50;23.63;;;12.73;;
19057;SDS011;9662;53.612;9.914;2022-08-19T00:47:17;17.27;;;11.98;;
19057;SDS011;9662;53.612;9.914;2022-08-19T00:49:45;18.83;;;11.90;;
19057;SDS011;9662;53.612;9.914;2022-08-19T00:52:16;19.25;;;12.10;;
19057;SDS011;9662;53.612;9.914;2022-08-19T00:54:47;23.48;;;11.27;;
19057;SDS011;9662;53.612;9.914;2022-08-19T00:57:17;23.55;;;10.95;;
19057;SDS011;9662;53.612;9.914;2022-08-19T00:59:47;14.52;;;9.73;;
19057;SDS011;9662;53.612;9.914;2022-08-19T01:02:20;12.05;;;9.25;;
19057;SDS011;9662;53.612;9.914;2022-08-19T01:04:46;15.18;;;10.23;;
19057;SDS011;9662;53.612;9.914;2022-08-19T01:07:13;15.07;;;10.50;;
19057;SDS011;9662;53.612;9.914;2022-08-19T01:09:40;16.63;;;10.43;;
19057;SDS011;9662;53.612;9.914;2022-08-19T01:12:07;14.73;;;9.70;;
19057;SDS011;9662;53.612;9.914;2022-08-19T01:14:34;12.88;;;9.05;;
19057;SDS011;9662;53.612;9.914;2022-08-19T01:17:03;10.95;;;8.77;;
19057;SDS011;9662;53.612;9.914;2022-08-19T01:19:32;13.57;;;9.75;;
19057;SDS011;9662;53.612;9.914;2022-08-19T01:22:03;14.65;;;9.30;;
19057;SDS011;9662;53.612;9.914;2022-08-19T01:24:35;14.93;;;9.18;;
19057;SDS011;9662;53.612;9.914;2022-08-19T01:27:03;13.13;;;9.52;;
19057;SDS011;9662;53.612;9.914;2022-08-19T01:29:30;17.02;;;9.98;;
19057;SDS011;9662;53.612;9.914;2022-08-19T01:31:57;17.73;;;9.63;;
19057;SDS011;9662;53.612;9.914;2022-08-19T01:34:25;16.00;;;9.90;;
19057;SDS011;9662;53.612;9.914;2022-08-19T01:36:51;15.20;;;9.75;;
19057;SDS011;9662;53.612;9.914;2022-08-19T01:39:19;19.25;;;10.23;;
19057;SDS011;9662;53.612;9.914;2022-08-19T01:41:49;22.42;;;11.35;;
19057;SDS011;9662;53.612;9.914;2022-08-19T01:44:20;21.30;;;10.90;;
19057;SDS011;9662;53.612;9.914;2022-08-19T01:46:49;24.73;;;11.45;;
19057;SDS011;9662;53.612;9.914;2022-08-19T01:49:17;18.67;;;10.80;;
19057;SDS011;9662;53.612;9.914;2022-08-19T01:51:46;18.95;;;10.57;;
19057;SDS011;9662;53.612;9.914;2022-08-19T01:54:15;19.75;;;10.75;;
19057;SDS011;9662;53.612;9.914;2022-08-19T01:56:43;25.73;;;10.97;;
19057;SDS011;9662;53.612;9.914;2022-08-19T01:59:12;23.48;;;11.65;;
19057;SDS011;9662;53.612;9.914;2022-08-19T02:01:42;17.55;;;10.38;;
19057;SDS011;9662;53.612;9.914;2022-08-19T02:04:09;23.17;;;11.85;;
19057;SDS011;9662;53.612;9.914;2022-08-19T02:06:36;22.77;;;11.70;;
19057;SDS011;9662;53.612;9.914;2022-08-19T02:09:04;23.95;;;12.00;;
19057;SDS011;9662;53.612;9.914;2022-08-19T02:11:33;27.02;;;12.10;;
19057;SDS011;9662;53.612;9.914;2022-08-19T02:14:02;30.33;;;12.55;;
19057;SDS011;9662;53.612;9.914;2022-08-19T02:16:32;22.98;;;11.75;;
19057;SDS011;9662;53.612;9.914;2022-08-19T02:18:59;21.75;;;10.75;;
19057;SDS011;9662;53.612;9.914;2022-08-19T02:21:26;25.35;;;11.77;;
19057;SDS011;9662;53.612;9.914;2022-08-19T02:23:54;24.55;;;11.32;;
19057;SDS011;9662;53.612;9.914;2022-08-19T02:26:21;22.02;;;11.10;;
19057;SDS011;9662;53.612;9.914;2022-08-19T02:28:48;24.85;;;11.52;;
19057;SDS011;9662;53.612;9.914;2022-08-19T02:31:16;20.23;;;10.32;;
19057;SDS011;9662;53.612;9.914;2022-08-19T02:33:46;26.52;;;12.02;;
19057;SDS011;9662;53.612;9.914;2022-08-19T02:36:15;26.57;;;11.40;;
19057;SDS011;9662;53.612;9.914;2022-08-19T02:38:42;30.25;;;11.60;;
19057;SDS011;9662;53.612;9.914;2022-08-19T02:41:11;26.80;;;12.68;;
19057;SDS011;9662;53.612;9.914;2022-08-19T02:43:39;35.80;;;13.32;;
19057;SDS011;9662;53.612;9.914;2022-08-19T02:46:14;29.83;;;13.18;;
19057;SDS011;9662;53.612;9.914;2022-08-19T02:48:47;36.28;;;14.27;;
19057;SDS011;9662;53.612;9.914;2022-08-19T02:51:18;31.02;;;13.77;;
19057;SDS011;9662;53.612;9.914;2022-08-19T02:53:46;30.13;;;13.40;;
19057;SDS011;9662;53.612;9.914;2022-08-19T02:56:13;35.50;;;13.93;;
19057;SDS011;9662;53.612;9.914;2022-08-19T02:58:40;32.13;;;13.90;;
19057;SDS011;9662;53.612;9.914;2022-08-19T03:01:08;38.83;;;14.27;;
19057;SDS011;9662;53.612;9.914;2022-08-19T03:03:36;32.92;;;13.30;;
19057;SDS011;9662;53.612;9.914;2022-08-19T03:06:08;27.30;;;12.70;;
19057;SDS011;9662;53.612;9.914;2022-08-19T03:08:38;29.98;;;13.57;;
19057;SDS011;9662;53.612;9.914;2022-08-19T03:11:06;25.40;;;11.95;;
19057;SDS011;9662;53.612;9.914;2022-08-19T03:13:38;29.67;;;12.70;;
19057;SDS011;9662;53.612;9.914;2022-08-19T03:16:04;32.42;;;12.70;;
19057;SDS011;9662;53.612;9.914;2022-08-19T03:18:31;34.03;;;12.82;;
19057;SDS011;9662;53.612;9.914;2022-08-19T03:20:58;34.85;;;14.07;;
19057;SDS011;9662;53.612;9.914;2022-08-19T03:23:26;32.53;;;13.50;;
19057;SDS011;9662;53.612;9.914;2022-08-19T03:25:53;39.30;;;12.77;;
19057;SDS011;9662;53.612;9.914;2022-08-19T03:28:20;32.80;;;13.77;;
19057;SDS011;9662;53.612;9.914;2022-08-19T03:30:56;34.15;;;12.45;;
19057;SDS011;9662;53.612;9.914;2022-08-19T03:33:25;33.97;;;13.23;;
19057;SDS011;9662;53.612;9.914;2022-08-19T03:36:03;23.40;;;11.30;;
19057;SDS011;9662;53.612;9.914;2022-08-19T03:38:34;34.05;;;12.43;;
19057;SDS011;9662;53.612;9.914;2022-08-19T03:41:05;30.10;;;11.98;;
19057;SDS011;9662;53.612;9.914;2022-08-19T03:43:34;23.80;;;10.32;;
19057;SDS011;9662;53.612;9.914;2022-08-19T03:46:02;25.10;;;10.18;;
19057;SDS011;9662;53.612;9.914;2022-08-19T03:48:30;25.33;;;10.27;;
19057;SDS011;9662;53.612;9.914;2022-08-19T03:50:57;28.02;;;10.30;;
19057;SDS011;9662;53.612;9.914;2022-08-19T03:53:25;28.05;;;10.95;;
19057;SDS011;9662;53.612;9.914;2022-08-19T03:55:54;24.85;;;10.80;;
19057;SDS011;9662;53.612;9.914;2022-08-19T03:58:22;25.17;;;10.50;;
19057;SDS011;9662;53.612;9.914;2022-08-19T04:00:49;28.10;;;11.20;;
19057;SDS011;9662;53.612;9.914;2022-08-19T04:03:16;26.83;;;11.18;;
19057;SDS011;9662;53.612;9.914;2022-08-19T04:05:44;32.63;;;12.17;;
19057;SDS011;9662;53.612;9.914;2022-08-19T04:08:12;35.83;;;13.02;;
19057;SDS011;9662;53.612;9.914;2022-08-19T04:10:45;42.35;;;14.55;;
19057;SDS011;9662;53.612;9.914;2022-08-19T04:13:13;32.83;;;13.40;;
19057;SDS011;9662;53.612;9.914;2022-08-19T04:15:41;39.83;;;14.02;;
19057;SDS011;9662;53.612;9.914;2022-08-19T04:18:08;39.47;;;14.90;;
19057;SDS011;9662;53.612;9.914;2022-08-19T04:20:40;34.33;;;13.88;;
19057;SDS011;9662;53.612;9.914;2022-08-19T04:23:08;43.70;;;15.27;;
19057;SDS011;9662;53.612;9.914;2022-08-19T04:25:36;42.00;;;15.48;;
19057;SDS011;9662;53.612;9.914;2022-08-19T04:28:03;33.70;;;14.50;;
19057;SDS011;9662;53.612;9.914;2022-08-19T04:30:36;38.33;;;14.93;;
19057;SDS011;9662;53.612;9.914;2022-08-19T04:33:04;34.92;;;14.82;;
19057;SDS011;9662;53.612;9.914;2022-08-19T04:35:34;31.38;;;13.98;;
19057;SDS011;9662;53.612;9.914;2022-08-19T04:38:01;38.65;;;14.95;;
19057;SDS011;9662;53.612;9.914;2022-08-19T04:40:28;32.30;;;13.93;;
19057;SDS011;9662;53.612;9.914;2022-08-19T04:43:12;35.00;;;14.73;;
19057;SDS011;9662;53.612;9.914;2022-08-19T04:45:42;39.58;;;14.73;;
19057;SDS011;9662;53.612;9.914;2022-08-19T04:48:09;25.80;;;14.35;;
19057;SDS011;9662;53.612;9.914;2022-08-19T04:50:36;32.25;;;14.50;;
19057;SDS011;9662;53.612;9.914;2022-08-19T04:53:06;24.17;;;13.55;;
19057;SDS011;9662;53.612;9.914;2022-08-19T04:55:33;29.10;;;13.75;;
19057;SDS011;9662;53.612;9.914;2022-08-19T04:58:00;28.27;;;13.57;;
19057;SDS011;9662;53.612;9.914;2022-08-19T05:00:27;28.77;;;13.50;;
19057;SDS011;9662;53.612;9.914;2022-08-19T05:02:56;23.90;;;11.73;;
19057;SDS011;9662;53.612;9.914;2022-08-19T05:05:22;21.67;;;10.73;;
19057;SDS011;9662;53.612;9.914;2022-08-19T05:07:49;16.60;;;10.45;;
19057;SDS011;9662;53.612;9.914;2022-08-19T05:10:16;15.75;;;9.63;;
19057;SDS011;9662;53.612;9.914;2022-08-19T05:12:43;16.55;;;10.07;;
19057;SDS011;9662;53.612;9.914;2022-08-19T05:15:09;10.50;;;8.40;;
19057;SDS011;9662;53.612;9.914;2022-08-19T05:17:36;12.77;;;8.45;;
19057;SDS011;9662;53.612;9.914;2022-08-19T05:20:24;12.93;;;9.32;;
19057;SDS011;9662;53.612;9.914;2022-08-19T05:23:10;15.60;;;8.38;;
19057;SDS011;9662;53.612;9.914;2022-08-19T05:25:39;10.75;;;8.52;;
19057;SDS011;9662;53.612;9.914;2022-08-19T05:28:06;15.35;;;9.05;;
19057;SDS011;9662;53.612;9.914;2022-08-19T05:30:33;14.90;;;8.18;;
19057;SDS011;9662;53.612;9.914;2022-08-19T05:33:00;16.15;;;8.65;;
19057;SDS011;9662;53.612;9.914;2022-08-19T05:35:28;10.35;;;7.68;;
19057;SDS011;9662;53.612;9.914;2022-08-19T05:37:55;13.82;;;8.95;;
19057;SDS011;9662;53.612;9.914;2022-08-19T05:40:22;12.10;;;8.40;;
19057;SDS011;9662;53.612;9.914;2022-08-19T05:42:49;9.90;;;8.50;;
19057;SDS011;9662;53.612;9.914;2022-08-19T05:45:16;13.13;;;8.52;;
19057;SDS011;9662;53.612;9.914;2022-08-19T05:47:43;12.90;;;8.02;;
19057;SDS011;9662;53.612;9.914;2022-08-19T05:50:10;8.75;;;7.95;;
19057;SDS011;9662;53.612;9.914;2022-08-19T05:52:38;9.88;;;8.05;;
19057;SDS011;9662;53.612;9.914;2022-08-19T05:55:06;9.30;;;7.60;;
19057;SDS011;9662;53.612;9.914;2022-08-19T05:57:33;11.13;;;8.38;;
19057;SDS011;9662;53.612;9.914;2022-08-19T06:00:00;15.70;;;8.15;;
19057;SDS011;9662;53.612;9.914;2022-08-19T06:02:27;19.33;;;9.00;;
19057;SDS011;9662;53.612;9.914;2022-08-19T06:04:55;14.57;;;8.60;;
19057;SDS011;9662;53.612;9.914;2022-08-19T06:07:22;10.55;;;8.15;;
19057;SDS011;9662;53.612;9.914;2022-08-19T06:09:50;11.88;;;8.95;;
19057;SDS011;9662;53.612;9.914;2022-08-19T06:12:17;13.17;;;8.60;;
19057;SDS011;9662;53.612;9.914;2022-08-19T06:14:44;10.95;;;8.27;;
19057;SDS011;9662;53.612;9.914;2022-08-19T06:17:10;19.23;;;10.63;;
19057;SDS011;9662;53.612;9.914;2022-08-19T06:19:38;19.48;;;10.48;;
19057;SDS011;9662;53.612;9.914;2022-08-19T06:22:06;22.02;;;10.45;;
19057;SDS011;9662;53.612;9.914;2022-08-19T06:24:33;15.65;;;10.13;;
19057;SDS011;9662;53.612;9.914;2022-08-19T06:27:02;15.43;;;9.48;;
19057;SDS011;9662;53.612;9.914;2022-08-19T06:29:30;19.13;;;9.97;;
19057;SDS011;9662;53.612;9.914;2022-08-19T06:31:58;16.05;;;9.40;;
19057;SDS011;9662;53.612;9.914;2022-08-19T06:34:27;15.70;;;9.57;;
19057;SDS011;9662;53.612;9.914;2022-08-19T06:36:54;17.33;;;9.40;;
19057;SDS011;9662;53.612;9.914;2022-08-19T06:39:25;18.77;;;9.00;;
19057;SDS011;9662;53.612;9.914;2022-08-19T06:41:55;12.23;;;8.98;;
19057;SDS011;9662;53.612;9.914;2022-08-19T06:44:25;13.05;;;8.63;;
19057;SDS011;9662;53.612;9.914;2022-08-19T06:46:54;14.88;;;8.85;;
19057;SDS011;9662;53.612;9.914;2022-08-19T06:49:21;12.38;;;7.88;;
19057;SDS011;9662;53.612;9.914;2022-08-19T06:51:48;13.02;;;7.60;;
19057;SDS011;9662;53.612;9.914;2022-08-19T06:54:16;14.23;;;8.20;;
19057;SDS011;9662;53.612;9.914;2022-08-19T06:56:44;10.60;;;7.73;;
19057;SDS011;9662;53.612;9.914;2022-08-19T06:59:11;8.05;;;7.35;;
19057;SDS011;9662;53.612;9.914;2022-08-19T07:01:42;13.65;;;7.68;;
19057;SDS011;9662;53.612;9.914;2022-08-19T07:04:12;12.87;;;7.10;;
19057;SDS011;9662;53.612;9.914;2022-08-19T07:06:41;7.50;;;6.63;;
19057;SDS011;9662;53.612;9.914;2022-08-19T07:09:09;7.95;;;7.05;;
19057;SDS011;9662;53.612;9.914;2022-08-19T07:11:37;7.57;;;6.50;;
19057;SDS011;9662;53.612;9.914;2022-08-19T07:14:05;8.50;;;6.27;;
19057;SDS011;9662;53.612;9.914;2022-08-19T07:16:31;7.25;;;5.80;;
19057;SDS011;9662;53.612;9.914;2022-08-19T07:18:59;6.20;;;5.70;;
19057;SDS011;9662;53.612;9.914;2022-08-19T07:21:27;8.77;;;6.05;;
19057;SDS011;9662;53.612;9.914;2022-08-19T07:23:54;7.27;;;6.30;;
19057;SDS011;9662;53.612;9.914;2022-08-19T07:26:25;5.93;;;5.30;;
19057;SDS011;9662;53.612;9.914;2022-08-19T07:28:54;5.65;;;5.15;;
19057;SDS011;9662;53.612;9.914;2022-08-19T07:31:22;7.30;;;5.33;;
19057;SDS011;9662;53.612;9.914;2022-08-19T07:33:51;5.65;;;5.25;;
19057;SDS011;9662;53.612;9.914;2022-08-19T07:36:22;5.20;;;4.70;;
19057;SDS011;9662;53.612;9.914;2022-08-19T07:38:57;11.02;;;5.03;;
19057;SDS011;9662;53.612;9.914;2022-08-19T07:41:25;4.88;;;4.50;;
19057;SDS011;9662;53.612;9.914;2022-08-19T07:43:56;4.77;;;4.47;;
19057;SDS011;9662;53.612;9.914;2022-08-19T07:46:24;4.75;;;4.35;;
19057;SDS011;9662;53.612;9.914;2022-08-19T07:48:53;6.80;;;4.50;;
19057;SDS011;9662;53.612;9.914;2022-08-19T07:51:21;4.23;;;3.93;;
19057;SDS011;9662;53.612;9.914;2022-08-19T07:53:48;4.07;;;3.83;;
19057;SDS011;9662;53.612;9.914;2022-08-19T07:56:16;4.30;;;3.97;;
19057;SDS011;9662;53.612;9.914;2022-08-19T07:58:45;4.88;;;4.38;;
19057;SDS011;9662;53.612;9.914;2022-08-19T08:01:17;4.38;;;4.10;;
19057;SDS011;9662;53.612;9.914;2022-08-19T08:03:45;5.78;;;4.07;;
19057;SDS011;9662;53.612;9.914;2022-08-19T08:06:31;8.15;;;4.68;;
19057;SDS011;9662;53.612;9.914;2022-08-19T08:09:19;8.80;;;5.10;;
19057;SDS011;9662;53.612;9.914;2022-08-19T08:11:50;5.43;;;4.47;;
19057;SDS011;9662;53.612;9.914;2022-08-19T08:14:19;13.75;;;4.60;;
19057;SDS011;9662;53.612;9.914;2022-08-19T08:16:48;4.68;;;4.28;;
19057;SDS011;9662;53.612;9.914;2022-08-19T08:19:16;11.10;;;5.00;;
19057;SDS011;9662;53.612;9.914;2022-08-19T08:21:47;9.77;;;4.60;;
19057;SDS011;9662;53.612;9.914;2022-08-19T08:24:14;6.93;;;5.55;;
19057;SDS011;9662;53.612;9.914;2022-08-19T08:26:43;6.78;;;6.07;;
19057;SDS011;9662;53.612;9.914;2022-08-19T08:29:11;6.38;;;5.80;;
19057;SDS011;9662;53.612;9.914;2022-08-19T08:31:38;8.48;;;6.63;;
19057;SDS011;9662;53.612;9.914;2022-08-19T08:34:06;7.30;;;6.38;;
19057;SDS011;9662;53.612;9.914;2022-08-19T08:36:35;9.30;;;7.13;;
19057;SDS011;9662;53.612;9.914;2022-08-19T08:39:07;11.83;;;7.20;;
19057;SDS011;9662;53.612;9.914;2022-08-19T08:41:36;20.13;;;7.15;;
19057;SDS011;9662;53.612;9.914;2022-08-19T08:44:13;6.95;;;6.20;;
19057;SDS011;9662;53.612;9.914;2022-08-19T08:46:44;8.02;;;6.57;;
19057;SDS011;9662;53.612;9.914;2022-08-19T08:49:17;9.48;;;7.05;;
19057;SDS011;9662;53.612;9.914;2022-08-19T08:51:52;10.57;;;7.07;;
19057;SDS011;9662;53.612;9.914;2022-08-19T08:54:27;10.63;;;7.22;;
19057;SDS011;9662;53.612;9.914;2022-08-19T08:56:58;9.27;;;7.10;;
19057;SDS011;9662;53.612;9.914;2022-08-19T08:59:26;15.23;;;8.00;;
19057;SDS011;9662;53.612;9.914;2022-08-19T09:01:58;14.43;;;8.68;;
19057;SDS011;9662;53.612;9.914;2022-08-19T09:04:25;15.52;;;8.13;;
19057;SDS011;9662;53.612;9.914;2022-08-19T09:06:54;9.85;;;7.10;;
19057;SDS011;9662;53.612;9.914;2022-08-19T09:09:32;8.20;;;6.15;;
19057;SDS011;9662;53.612;9.914;2022-08-19T09:12:04;7.93;;;6.28;;
19057;SDS011;9662;53.612;9.914;2022-08-19T09:14:43;8.77;;;5.95;;
19057;SDS011;9662;53.612;9.914;2022-08-19T09:17:15;11.40;;;5.78;;
19057;SDS011;9662;53.612;9.914;2022-08-19T09:19:56;11.93;;;5.88;;
19057;SDS011;9662;53.612;9.914;2022-08-19T09:22:25;7.93;;;5.68;;
19057;SDS011;9662;53.612;9.914;2022-08-19T09:24:54;10.50;;;5.78;;
19057;SDS011;9662;53.612;9.914;2022-08-19T09:27:21;10.55;;;5.95;;
19057;SDS011;9662;53.612;9.914;2022-08-19T09:29:50;8.20;;;6.10;;
19057;SDS011;9662;53.612;9.914;2022-08-19T09:32:17;5.97;;;5.47;;
19057;SDS011;9662;53.612;9.914;2022-08-19T09:34:44;10.13;;;6.28;;
19057;SDS011;9662;53.612;9.914;2022-08-19T09:37:10;7.35;;;5.40;;
19057;SDS011;9662;53.612;9.914;2022-08-19T09:39:37;7.25;;;6.10;;
19057;SDS011;9662;53.612;9.914;2022-08-19T09:42:07;8.63;;;6.20;;
19057;SDS011;9662;53.612;9.914;2022-08-19T09:44:37;11.33;;;6.43;;
19057;SDS011;9662;53.612;9.914;2022-08-19T09:47:04;11.38;;;7.50;;
19057;SDS011;9662;53.612;9.914;2022-08-19T09:49:31;13.13;;;7.33;;
19057;SDS011;9662;53.612;9.914;2022-08-19T09:51:59;13.60;;;7.07;;
19057;SDS011;9662;53.612;9.914;2022-08-19T09:54:26;19.17;;;7.93;;
19057;SDS011;9662;53.612;9.914;2022-08-19T09:56:54;8.10;;;7.18;;
19057;SDS011;9662;53.612;9.914;2022-08-19T09:59:22;9.27;;;7.40;;
19057;SDS011;9662;53.612;9.914;2022-08-19T10:01:49;9.20;;;7.13;;
19057;SDS011;9662;53.612;9.914;2022-08-19T10:04:17;13.75;;;8.90;;
19057;SDS011;9662;53.612;9.914;2022-08-19T10:06:44;18.10;;;8.95;;
19057;SDS011;9662;53.612;9.914;2022-08-19T10:09:13;12.35;;;8.95;;
19057;SDS011;9662;53.612;9.914;2022-08-19T10:11:41;11.95;;;8.90;;
19057;SDS011;9662;53.612;9.914;2022-08-19T10:14:11;14.65;;;8.82;;
19057;SDS011;9662;53.612;9.914;2022-08-19T10:16:39;13.68;;;8.95;;
19057;SDS011;9662;53.612;9.914;2022-08-19T10:19:07;11.85;;;8.88;;
19057;SDS011;9662;53.612;9.914;2022-08-19T10:21:34;12.25;;;8.77;;
19057;SDS011;9662;53.612;9.914;2022-08-19T10:24:03;12.20;;;8.90;;
19057;SDS011;9662;53.612;9.914;2022-08-19T10:26:31;16.52;;;9.70;;
19057;SDS011;9662;53.612;9.914;2022-08-19T10:29:02;17.17;;;9.85;;
19057;SDS011;9662;53.612;9.914;2022-08-19T10:31:31;17.75;;;9.88;;
19057;SDS011;9662;53.612;9.914;2022-08-19T10:34:00;17.85;;;10.00;;
19057;SDS011;9662;53.612;9.914;2022-08-19T10:36:28;12.77;;;9.35;;
19057;SDS011;9662;53.612;9.914;2022-08-19T10:38:58;10.13;;;9.15;;
19057;SDS011;9662;53.612;9.914;2022-08-19T10:41:27;14.73;;;9.98;;
19057;SDS011;9662;53.612;9.914;2022-08-19T10:43:56;14.10;;;9.30;;
19057;SDS011;9662;53.612;9.914;2022-08-19T10:46:25;17.98;;;9.00;;
19057;SDS011;9662;53.612;9.914;2022-08-19T10:48:54;15.25;;;10.00;;
19057;SDS011;9662;53.612;9.914;2022-08-19T10:51:22;18.02;;;10.00;;
19057;SDS011;9662;53.612;9.914;2022-08-19T10:54:07;17.25;;;10.00;;
19057;SDS011;9662;53.612;9.914;2022-08-19T10:56:33;14.43;;;9.15;;
19057;SDS011;9662;53.612;9.914;2022-08-19T10:59:19;23.42;;;11.15;;
19057;SDS011;9662;53.612;9.914;2022-08-19T11:01:47;14.65;;;9.07;;
19057;SDS011;9662;53.612;9.914;2022-08-19T11:04:14;13.52;;;8.65;;
19057;SDS011;9662;53.612;9.914;2022-08-19T11:06:44;11.70;;;8.73;;
19057;SDS011;9662;53.612;9.914;2022-08-19T11:09:12;18.52;;;9.57;;
19057;SDS011;9662;53.612;9.914;2022-08-19T11:11:40;10.32;;;8.23;;
19057;SDS011;9662;53.612;9.914;2022-08-19T11:14:07;11.63;;;7.88;;
19057;SDS011;9662;53.612;9.914;2022-08-19T11:16:35;11.98;;;9.00;;
19057;SDS011;9662;53.612;9.914;2022-08-19T11:19:04;12.68;;;8.00;;
19057;SDS011;9662;53.612;9.914;2022-08-19T11:21:34;12.30;;;7.32;;
19057;SDS011;9662;53.612;9.914;2022-08-19T11:24:04;8.98;;;7.97;;
19057;SDS011;9662;53.612;9.914;2022-08-19T11:26:33;8.07;;;7.15;;
19057;SDS011;9662;53.612;9.914;2022-08-19T11:29:00;9.50;;;7.95;;
19057;SDS011;9662;53.612;9.914;2022-08-19T11:31:30;8.35;;;7.60;;
19057;SDS011;9662;53.612;9.914;2022-08-19T11:34:00;10.50;;;7.97;;
19057;SDS011;9662;53.612;9.914;2022-08-19T11:36:30;13.17;;;8.20;;
19057;SDS011;9662;53.612;9.914;2022-08-19T11:38:57;8.38;;;7.60;;
19057;SDS011;9662;53.612;9.914;2022-08-19T11:41:25;11.48;;;8.13;;
19057;SDS011;9662;53.612;9.914;2022-08-19T11:43:52;7.30;;;6.60;;
19057;SDS011;9662;53.612;9.914;2022-08-19T11:46:21;9.43;;;7.55;;
19057;SDS011;9662;53.612;9.914;2022-08-19T11:48:49;10.38;;;7.65;;
19057;SDS011;9662;53.612;9.914;2022-08-19T11:51:17;12.27;;;7.87;;
19057;SDS011;9662;53.612;9.914;2022-08-19T11:53:45;10.93;;;6.93;;
19057;SDS011;9662;53.612;9.914;2022-08-19T11:56:12;7.03;;;6.30;;
19057;SDS011;9662;53.612;9.914;2022-08-19T11:58:40;7.10;;;6.43;;
19057;SDS011;9662;53.612;9.914;2022-08-19T12:01:08;7.45;;;6.93;;
19057;SDS011;9662;53.612;9.914;2022-08-19T12:03:37;10.03;;;6.97;;
19057;SDS011;9662;53.612;9.914;2022-08-19T12:06:05;8.17;;;6.53;;
19057;SDS011;9662;53.612;9.914;2022-08-19T12:08:33;7.33;;;6.73;;
19057;SDS011;9662;53.612;9.914;2022-08-19T12:11:00;8.00;;;7.20;;
19057;SDS011;9662;53.612;9.914;2022-08-19T12:13:27;7.88;;;7.03;;
19057;SDS011;9662;53.612;9.914;2022-08-19T12:15:57;7.50;;;6.82;;
19057;SDS011;9662;53.612;9.914;2022-08-19T12:18:24;7.72;;;6.93;;
19057;SDS011;9662;53.612;9.914;2022-08-19T12:20:51;9.07;;;7.53;;
19057;SDS011;9662;53.612;9.914;2022-08-19T12:23:21;11.52;;;6.80;;
19057;SDS011;9662;53.612;9.914;2022-08-19T12:25:48;7.68;;;7.07;;
19057;SDS011;9662;53.612;9.914;2022-08-19T12:28:16;7.25;;;6.65;;
19057;SDS011;9662;53.612;9.914;2022-08-19T12:30:44;8.13;;;7.07;;
19057;SDS011;9662;53.612;9.914;2022-08-19T12:33:12;8.03;;;7.33;;
19057;SDS011;9662;53.612;9.914;2022-08-19T12:35:40;9.15;;;8.10;;
19057;SDS011;9662;53.612;9.914;2022-08-19T12:38:08;8.65;;;7.60;;
19057;SDS011;9662;53.612;9.914;2022-08-19T12:40:35;7.03;;;6.57;;
19057;SDS011;9662;53.612;9.914;2022-08-19T12:43:03;7.03;;;6.43;;
19057;SDS011;9662;53.612;9.914;2022-08-19T12:45:30;7.18;;;6.63;;
19057;SDS011;9662;53.612;9.914;2022-08-19T12:47:57;6.82;;;6.32;;
19057;SDS011;9662;53.612;9.914;2022-08-19T12:50:26;7.38;;;6.68;;
19057;SDS011;9662;53.612;9.914;2022-08-19T12:52:53;6.90;;;6.35;;
19057;SDS011;9662;53.612;9.914;2022-08-19T12:55:20;7.47;;;6.80;;
19057;SDS011;9662;53.612;9.914;2022-08-19T12:57:46;9.45;;;7.40;;
19057;SDS011;9662;53.612;9.914;2022-08-19T13:00:14;7.00;;;6.50;;
19057;SDS011;9662;53.612;9.914;2022-08-19T13:02:46;7.13;;;6.55;;
19057;SDS011;9662;53.612;9.914;2022-08-19T13:05:16;7.05;;;6.55;;
19057;SDS011;9662;53.612;9.914;2022-08-19T13:07:47;7.40;;;6.45;;
19057;SDS011;9662;53.612;9.914;2022-08-19T13:10:16;7.28;;;6.70;;
19057;SDS011;9662;53.612;9.914;2022-08-19T13:12:45;10.70;;;7.13;;
19057;SDS011;9662;53.612;9.914;2022-08-19T13:15:14;9.63;;;7.05;;
19057;SDS011;9662;53.612;9.914;2022-08-19T13:17:45;6.20;;;5.80;;
19057;SDS011;9662;53.612;9.914;2022-08-19T13:20:14;7.32;;;6.75;;
19057;SDS011;9662;53.612;9.914;2022-08-19T13:22:42;7.37;;;6.77;;
19057;SDS011;9662;53.612;9.914;2022-08-19T13:25:11;6.93;;;6.40;;
19057;SDS011;9662;53.612;9.914;2022-08-19T13:27:41;6.85;;;6.25;;
19057;SDS011;9662;53.612;9.914;2022-08-19T13:30:08;7.28;;;6.13;;
19057;SDS011;9662;53.612;9.914;2022-08-19T13:32:55;7.07;;;6.50;;
19057;SDS011;9662;53.612;9.914;2022-08-19T13:35:39;7.22;;;6.65;;
19057;SDS011;9662;53.612;9.914;2022-08-19T13:38:07;6.10;;;5.70;;
19057;SDS011;9662;53.612;9.914;2022-08-19T13:40:36;7.10;;;6.50;;
19057;SDS011;9662;53.612;9.914;2022-08-19T13:43:05;6.65;;;6.13;;
19057;SDS011;9662;53.612;9.914;2022-08-19T13:45:33;7.05;;;6.55;;
19057;SDS011;9662;53.612;9.914;2022-08-19T13:48:00;7.80;;;7.10;;
19057;SDS011;9662;53.612;9.914;2022-08-19T13:50:32;6.97;;;6.50;;
19057;SDS011;9662;53.612;9.914;2022-08-19T13:52:59;7.90;;;7.30;;
19057;SDS011;9662;53.612;9.914;2022-08-19T13:55:27;7.13;;;6.70;;
19057;SDS011;9662;53.612;9.914;2022-08-19T13:57:56;8.30;;;7.53;;
19057;SDS011;9662;53.612;9.914;2022-08-19T14:00:26;7.78;;;7.13;;
19057;SDS011;9662;53.612;9.914;2022-08-19T14:02:55;7.68;;;6.90;;
19057;SDS011;9662;53.612;9.914;2022-08-19T14:05:23;8.20;;;7.40;;
19057;SDS011;9662;53.612;9.914;2022-08-19T14:07:51;7.90;;;7.25;;
19057;SDS011;9662;53.612;9.914;2022-08-19T14:10:19;8.07;;;7.47;;
19057;SDS011;9662;53.612;9.914;2022-08-19T14:12:46;7.80;;;7.05;;
19057;SDS011;9662;53.612;9.914;2022-08-19T14:15:14;12.77;;;8.23;;
19057;SDS011;9662;53.612;9.914;2022-08-19T14:17:42;9.50;;;8.27;;
19057;SDS011;9662;53.612;9.914;2022-08-19T14:20:12;9.83;;;8.83;;
19057;SDS011;9662;53.612;9.914;2022-08-19T14:22:41;10.90;;;9.32;;
19057;SDS011;9662;53.612;9.914;2022-08-19T14:25:10;8.43;;;7.63;;
19057;SDS011;9662;53.612;9.914;2022-08-19T14:27:38;9.55;;;8.65;;
19057;SDS011;9662;53.612;9.914;2022-08-19T14:30:07;9.70;;;8.73;;
19057;SDS011;9662;53.612;9.914;2022-08-19T14:32:36;8.98;;;7.45;;
19057;SDS011;9662;53.612;9.914;2022-08-19T14:35:04;8.57;;;7.88;;
19057;SDS011;9662;53.612;9.914;2022-08-19T14:37:33;8.90;;;8.15;;
19057;SDS011;9662;53.612;9.914;2022-08-19T14:40:00;9.30;;;8.47;;
19057;SDS011;9662;53.612;9.914;2022-08-19T14:42:27;9.98;;;7.72;;
19057;SDS011;9662;53.612;9.914;2022-08-19T14:44:56;9.43;;;8.30;;
19057;SDS011;9662;53.612;9.914;2022-08-19T14:47:24;8.80;;;7.60;;
19057;SDS011;9662;53.612;9.914;2022-08-19T14:49:53;7.65;;;7.05;;
19057;SDS011;9662;53.612;9.914;2022-08-19T14:52:20;7.78;;;7.15;;
19057;SDS011;9662;53.612;9.914;2022-08-19T14:54:47;7.75;;;7.15;;
19057;SDS011;9662;53.612;9.914;2022-08-19T14:57:14;7.33;;;6.73;;